JST125 YSCB-YSSY
Flight info
| Callsign | JST125 |
|---|---|
| Flight time | 0h 32m |
| Altitude | 17000 |
| Route | CULIN Y59 RIVET |
| Aircraft | A320/M-SDE3FGHIRWY/LB1 |
Departure
| Time | 2026-05-04 11:26 |
|---|---|
| Airport | Canberra Airport (YSCB) |
Arrival
| Time | 2026-05-04 11:58 |
|---|---|
| Airport | Sydney Kingsford Smith International Airport (YSSY) |
| Time | Latitude | Longitude | Altitude | Speed | Heading |
|---|---|---|---|---|---|
| 2026-05-04 10:46 | -35.30886 | 149.19118 | 1878 ft | 0 kts | 306° |
| 2026-05-04 11:19 | -35.30895 | 149.19132 | 1881 ft | 4 kts | 307° |
| 2026-05-04 11:19 | -35.30911 | 149.19158 | 1881 ft | 4 kts | 310° |
| 2026-05-04 11:19 | -35.30929 | 149.19183 | 1876 ft | 4 kts | 311° |
| 2026-05-04 11:19 | -35.30946 | 149.19208 | 1879 ft | 4 kts | 306° |
| 2026-05-04 11:20 | -35.30957 | 149.19233 | 1879 ft | 4 kts | 253° |
| 2026-05-04 11:20 | -35.30951 | 149.19238 | 1873 ft | 4 kts | 182° |
| 2026-05-04 11:20 | -35.30924 | 149.19239 | 1879 ft | 4 kts | 180° |
| 2026-05-04 11:20 | -35.30897 | 149.19239 | 1879 ft | 4 kts | 179° |
| 2026-05-04 11:22 | -35.30883 | 149.19238 | 1880 ft | 0 kts | 179° |
| 2026-05-04 11:23 | -35.30908 | 149.19239 | 1880 ft | 9 kts | 179° |
| 2026-05-04 11:23 | -35.31023 | 149.19241 | 1880 ft | 24 kts | 180° |
| 2026-05-04 11:24 | -35.31440 | 149.19441 | 1874 ft | 8 kts | 359° |
| 2026-05-04 11:25 | -35.31137 | 149.19442 | 1876 ft | 77 kts | 360° |
| 2026-05-04 11:25 | -35.30415 | 149.19438 | 1882 ft | 128 kts | 360° |
| 2026-05-04 11:25 | -35.29388 | 149.19440 | 1992 ft | 161 kts | 359° |
| 2026-05-04 11:26 | -35.27043 | 149.19623 | 3004 ft | 183 kts | 3° |
| 2026-05-04 11:27 | -35.15322 | 149.22074 | 7762 ft | 287 kts | 33° |
| 2026-05-04 11:28 | -35.13829 | 149.23684 | 8746 ft | 286 kts | 33° |
| 2026-05-04 11:28 | -35.12358 | 149.25312 | 9702 ft | 284 kts | 33° |
| 2026-05-04 11:28 | -35.10893 | 149.26944 | 10433 ft | 291 kts | 33° |
| 2026-05-04 11:28 | -35.09331 | 149.28666 | 10648 ft | 314 kts | 33° |
| 2026-05-04 11:29 | -35.07647 | 149.30514 | 10943 ft | 332 kts | 34° |
| 2026-05-04 11:29 | -35.05914 | 149.32426 | 11533 ft | 339 kts | 34° |
| 2026-05-04 11:29 | -35.04186 | 149.34425 | 12184 ft | 348 kts | 40° |
| 2026-05-04 11:29 | -35.02568 | 149.36650 | 12823 ft | 353 kts | 41° |
| 2026-05-04 11:31 | -34.91127 | 149.53304 | 16936 ft | 376 kts | 42° |
| 2026-05-04 11:33 | -34.79306 | 149.70288 | 17123 ft | 401 kts | 43° |
| 2026-05-04 11:33 | -34.77503 | 149.72879 | 17118 ft | 401 kts | 43° |
| 2026-05-04 11:33 | -34.75700 | 149.75463 | 17117 ft | 401 kts | 43° |
| 2026-05-04 11:34 | -34.73896 | 149.78044 | 17118 ft | 401 kts | 43° |
| 2026-05-04 11:34 | -34.72090 | 149.80627 | 17120 ft | 401 kts | 43° |
| 2026-05-04 11:34 | -34.70287 | 149.83204 | 17107 ft | 400 kts | 43° |
| 2026-05-04 11:34 | -34.68483 | 149.85779 | 17105 ft | 400 kts | 43° |
| 2026-05-04 11:35 | -34.66675 | 149.88357 | 17095 ft | 400 kts | 43° |
| 2026-05-04 11:35 | -34.64870 | 149.90929 | 17082 ft | 400 kts | 43° |
| 2026-05-04 11:35 | -34.63062 | 149.93503 | 17088 ft | 401 kts | 43° |
| 2026-05-04 11:35 | -34.61254 | 149.96079 | 17083 ft | 401 kts | 43° |
| 2026-05-04 11:36 | -34.59469 | 149.98627 | 17085 ft | 401 kts | 43° |
| 2026-05-04 11:36 | -34.57663 | 150.01201 | 17089 ft | 401 kts | 43° |
| 2026-05-04 11:36 | -34.55853 | 150.03779 | 17099 ft | 401 kts | 43° |
| 2026-05-04 11:36 | -34.54046 | 150.06352 | 17091 ft | 401 kts | 43° |
| 2026-05-04 11:37 | -34.52235 | 150.08927 | 17091 ft | 401 kts | 43° |
| 2026-05-04 11:37 | -34.50422 | 150.11498 | 17095 ft | 401 kts | 43° |
| 2026-05-04 11:37 | -34.48610 | 150.14066 | 17099 ft | 401 kts | 43° |
| 2026-05-04 11:37 | -34.46794 | 150.16636 | 17098 ft | 401 kts | 43° |
| 2026-05-04 11:38 | -34.44983 | 150.19195 | 17077 ft | 401 kts | 43° |
| 2026-05-04 11:38 | -34.43165 | 150.21761 | 17074 ft | 401 kts | 43° |
| 2026-05-04 11:38 | -34.41348 | 150.24324 | 17083 ft | 401 kts | 43° |
| 2026-05-04 11:38 | -34.39534 | 150.26886 | 17084 ft | 401 kts | 43° |
| 2026-05-04 11:39 | -34.37721 | 150.29446 | 17078 ft | 401 kts | 43° |
| 2026-05-04 11:39 | -34.35910 | 150.32005 | 17078 ft | 401 kts | 43° |
| 2026-05-04 11:40 | -34.26312 | 150.47000 | 14602 ft | 342 kts | 55° |
| 2026-05-04 11:41 | -34.25200 | 150.49488 | 14130 ft | 331 kts | 55° |
| 2026-05-04 11:41 | -34.24113 | 150.51919 | 13643 ft | 330 kts | 55° |
| 2026-05-04 11:41 | -34.23015 | 150.54361 | 13158 ft | 331 kts | 55° |
| 2026-05-04 11:41 | -34.21915 | 150.56806 | 12666 ft | 331 kts | 55° |
| 2026-05-04 11:42 | -34.20814 | 150.59253 | 12192 ft | 331 kts | 55° |
| 2026-05-04 11:42 | -34.19713 | 150.61700 | 11694 ft | 332 kts | 56° |
| 2026-05-04 11:42 | -34.18613 | 150.64152 | 11225 ft | 332 kts | 56° |
| 2026-05-04 11:42 | -34.17528 | 150.66569 | 10759 ft | 331 kts | 56° |
| 2026-05-04 11:43 | -34.16434 | 150.69002 | 10489 ft | 324 kts | 56° |
| 2026-05-04 11:43 | -34.15386 | 150.71347 | 10332 ft | 307 kts | 56° |
| 2026-05-04 11:43 | -34.14389 | 150.73579 | 9902 ft | 298 kts | 56° |
| 2026-05-04 11:43 | -34.13420 | 150.75735 | 9686 ft | 291 kts | 55° |
| 2026-05-04 11:44 | -34.12446 | 150.77888 | 9545 ft | 293 kts | 55° |
| 2026-05-04 11:44 | -34.11465 | 150.80046 | 9421 ft | 293 kts | 55° |
| 2026-05-04 11:44 | -34.10479 | 150.82215 | 9095 ft | 295 kts | 56° |
| 2026-05-04 11:44 | -34.09498 | 150.84382 | 8776 ft | 293 kts | 56° |
| 2026-05-04 11:45 | -34.08529 | 150.86535 | 8609 ft | 291 kts | 56° |
| 2026-05-04 11:45 | -34.07567 | 150.88677 | 8212 ft | 289 kts | 56° |
| 2026-05-04 11:45 | -34.06610 | 150.90800 | 7932 ft | 288 kts | 56° |
| 2026-05-04 11:45 | -34.05666 | 150.92895 | 7650 ft | 288 kts | 56° |
| 2026-05-04 11:46 | -34.04712 | 150.95015 | 7364 ft | 287 kts | 56° |
| 2026-05-04 11:46 | -34.03795 | 150.97154 | 7077 ft | 290 kts | 64° |
| 2026-05-04 11:46 | -34.03425 | 150.99559 | 6797 ft | 296 kts | 88° |
| 2026-05-04 11:46 | -34.03877 | 151.01987 | 6496 ft | 301 kts | 114° |
| 2026-05-04 11:47 | -34.05084 | 151.04038 | 6171 ft | 301 kts | 135° |
| 2026-05-04 11:47 | -34.06540 | 151.05853 | 5861 ft | 300 kts | 138° |
| 2026-05-04 11:47 | -34.08203 | 151.07336 | 5549 ft | 297 kts | 153° |
| 2026-05-04 11:47 | -34.10105 | 151.08261 | 5269 ft | 292 kts | 169° |
| 2026-05-04 11:48 | -34.12080 | 151.08777 | 4982 ft | 289 kts | 171° |
| 2026-05-04 11:48 | -34.14035 | 151.09281 | 4704 ft | 287 kts | 171° |
| 2026-05-04 11:48 | -34.15985 | 151.09789 | 4421 ft | 285 kts | 171° |
| 2026-05-04 11:48 | -34.17916 | 151.10294 | 4150 ft | 283 kts | 171° |
| 2026-05-04 11:49 | -34.19810 | 151.10880 | 3952 ft | 277 kts | 158° |
| 2026-05-04 11:49 | -34.21221 | 151.12286 | 3861 ft | 257 kts | 119° |
| 2026-05-04 11:49 | -34.21623 | 151.14246 | 3773 ft | 232 kts | 77° |
| 2026-05-04 11:49 | -34.21164 | 151.16004 | 3695 ft | 215 kts | 64° |
| 2026-05-04 11:50 | -34.20758 | 151.17713 | 3612 ft | 215 kts | 72° |
| 2026-05-04 11:50 | -34.20424 | 151.19467 | 3547 ft | 214 kts | 73° |
| 2026-05-04 11:50 | -34.20098 | 151.21223 | 3480 ft | 214 kts | 73° |
| 2026-05-04 11:50 | -34.19773 | 151.22978 | 3402 ft | 215 kts | 73° |
| 2026-05-04 11:51 | -34.19446 | 151.24736 | 3333 ft | 214 kts | 73° |
| 2026-05-04 11:51 | -34.19123 | 151.26481 | 3257 ft | 213 kts | 73° |
| 2026-05-04 11:51 | -34.18791 | 151.28227 | 3182 ft | 213 kts | 73° |
| 2026-05-04 11:51 | -34.18458 | 151.29969 | 3086 ft | 212 kts | 69° |
| 2026-05-04 11:52 | -34.17702 | 151.31403 | 3002 ft | 199 kts | 31° |
| 2026-05-04 11:52 | -34.16464 | 151.31928 | 3004 ft | 188 kts | 353° |
| 2026-05-04 11:52 | -34.15248 | 151.31447 | 3003 ft | 186 kts | 327° |
| 2026-05-04 11:52 | -34.14182 | 151.30581 | 3001 ft | 184 kts | 316° |
| 2026-05-04 11:53 | -34.13572 | 151.29249 | 3008 ft | 185 kts | 287° |
| 2026-05-04 11:53 | -34.13246 | 151.27747 | 3008 ft | 185 kts | 289° |
| 2026-05-04 11:53 | -34.12865 | 151.26268 | 3006 ft | 184 kts | 290° |
| 2026-05-04 11:53 | -34.12451 | 151.24807 | 3003 ft | 183 kts | 298° |
| 2026-05-04 11:55 | -34.06356 | 151.20646 | 2056 ft | 136 kts | 345° |
| 2026-05-04 11:55 | -34.05429 | 151.20405 | 1848 ft | 136 kts | 345° |
| 2026-05-04 11:56 | -34.04503 | 151.20165 | 1661 ft | 136 kts | 346° |
| 2026-05-04 11:56 | -34.03579 | 151.19924 | 1457 ft | 135 kts | 347° |
| 2026-05-04 11:56 | -34.02669 | 151.19688 | 1294 ft | 135 kts | 347° |
| 2026-05-04 11:56 | -34.01745 | 151.19448 | 1108 ft | 135 kts | 346° |
| 2026-05-04 11:57 | -34.00826 | 151.19209 | 926 ft | 136 kts | 348° |
| 2026-05-04 11:57 | -33.99898 | 151.18967 | 744 ft | 134 kts | 350° |
| 2026-05-04 11:57 | -33.98981 | 151.18729 | 578 ft | 137 kts | 348° |
| 2026-05-04 11:57 | -33.98052 | 151.18488 | 388 ft | 139 kts | 349° |
| 2026-05-04 11:58 | -33.97113 | 151.18244 | 211 ft | 137 kts | 349° |
| 2026-05-04 11:58 | -33.96190 | 151.18004 | 41 ft | 130 kts | 348° |
| 2026-05-04 11:58 | -33.95440 | 151.17806 | 29 ft | 90 kts | 347° |
| 2026-05-04 11:58 | -33.94986 | 151.17691 | 28 ft | 41 kts | 347° |
| 2026-05-04 11:59 | -33.94755 | 151.17643 | 29 ft | 33 kts | 354° |
| 2026-05-04 11:59 | -33.94582 | 151.17658 | 29 ft | 4 kts | 14° |
| 2026-05-04 11:59 | -33.94578 | 151.17660 | 29 ft | 0 kts | 14° |
| 2026-05-04 11:59 | -33.94554 | 151.17667 | 30 ft | 11 kts | 14° |
| 2026-05-04 12:00 | -33.94427 | 151.17713 | 30 ft | 25 kts | 21° |
| 2026-05-04 12:00 | -33.94251 | 151.17711 | 29 ft | 27 kts | 347° |
| 2026-05-04 12:00 | -33.94064 | 151.17652 | 28 ft | 29 kts | 346° |
| 2026-05-04 12:00 | -33.93865 | 151.17599 | 29 ft | 30 kts | 349° |
| 2026-05-04 12:01 | -33.93678 | 151.17566 | 29 ft | 24 kts | 19° |
| 2026-05-04 12:01 | -33.93647 | 151.17694 | 30 ft | 1 kts | 99° |
| 2026-05-04 12:02 | -33.93575 | 151.17825 | 30 ft | 5 kts | 343° |
| 2026-05-04 12:03 | -33.93566 | 151.17776 | 30 ft | 6 kts | 279° |
| 2026-05-04 12:03 | -33.93563 | 151.17758 | 30 ft | 0 kts | 280° |